Time;durP1;ratioP1;P1;durP2;ratioP2;P2;SDS_P1;SDS_P2;PMS_P1;PMS_P2;Temp;Humidity;BMP_temperature;BMP_pressure;BME280_temperature;BME280_humidity;BME280_pressure;Samples;Min_cycle;Max_cycle;Signal;HPM_P1;HPM_P2
2023/09/07 00:01:30;;;;;;;5.10;4.70;;;17.60;99.90;;;;;;4970634;28;20189;-67
2023/09/07 00:03:55;;;;;;;5.00;4.60;;;17.40;99.90;;;;;;4969055;28;20296;-66
2023/09/07 00:06:21;;;;;;;4.43;4.00;;;17.20;99.90;;;;;;4984398;28;20200;-65
2023/09/07 00:08:46;;;;;;;4.60;4.20;;;17.30;99.90;;;;;;4969743;28;20223;-65
2023/09/07 00:11:12;;;;;;;4.27;3.90;;;17.40;99.90;;;;;;4969591;28;20196;-65
2023/09/07 00:13:38;;;;;;;4.57;4.17;;;17.30;99.90;;;;;;4970428;28;20211;-65
2023/09/07 00:16:05;;;;;;;4.53;4.13;;;17.10;99.90;;;;;;4969982;28;20216;-66
2023/09/07 00:18:31;;;;;;;4.68;4.15;;;17.20;99.90;;;;;;4967918;28;20472;-65
2023/09/07 00:20:57;;;;;;;4.75;4.25;;;17.10;99.90;;;;;;4969837;28;20223;-66
2023/09/07 00:23:22;;;;;;;4.47;4.17;;;17.30;99.90;;;;;;4970415;28;20219;-66
2023/09/07 00:25:48;;;;;;;4.67;4.27;;;17.20;99.90;;;;;;4968810;28;20262;-65
2023/09/07 00:28:14;;;;;;;4.83;4.37;;;17.10;99.90;;;;;;4969984;28;20207;-66
2023/09/07 00:30:40;;;;;;;5.13;4.40;;;16.90;99.90;;;;;;4982012;28;20490;-66
2023/09/07 00:33:06;;;;;;;4.72;4.28;;;17.00;99.90;;;;;;4966675;28;20191;-66
2023/09/07 00:35:31;;;;;;;4.30;4.00;;;17.10;99.90;;;;;;4968543;28;20184;-66
2023/09/07 00:37:57;;;;;;;5.30;4.90;;;17.00;99.90;;;;;;4969257;28;20756;-65
2023/09/07 00:40:23;;;;;;;4.83;4.33;;;16.90;99.90;;;;;;4967483;28;20192;-65
2023/09/07 00:42:49;;;;;;;4.35;4.05;;;16.90;99.90;;;;;;4968250;28;20204;-66
2023/09/07 00:45:15;;;;;;;4.77;4.30;;;16.90;99.90;;;;;;4969932;28;20707;-66
2023/09/07 00:47:41;;;;;;;4.25;3.95;;;16.90;99.90;;;;;;4969638;28;20263;-66
2023/09/07 00:50:07;;;;;;;5.35;4.85;;;16.80;99.90;;;;;;4983257;28;20279;-66
2023/09/07 00:52:34;;;;;;;4.70;4.30;;;16.90;99.90;;;;;;4969726;28;20684;-66
2023/09/07 00:55:02;;;;;;;6.95;4.32;;;16.80;99.90;;;;;;4968025;28;20574;-66
2023/09/07 00:57:27;;;;;;;4.95;4.53;;;17.00;99.90;;;;;;4968400;28;20223;-66
2023/09/07 00:59:54;;;;;;;5.53;4.20;;;16.60;99.90;;;;;;4969341;28;20192;-66
2023/09/07 01:02:19;;;;;;;4.20;3.90;;;16.70;99.90;;;;;;4968772;28;20195;-66
2023/09/07 01:04:45;;;;;;;4.90;3.90;;;16.70;99.90;;;;;;4969039;28;20188;-65
2023/09/07 01:07:32;;;;;;;4.70;4.30;;;16.60;99.90;;;;;;4967959;28;20192;-65
2023/09/07 01:10:00;;;;;;;4.72;3.92;;;16.60;99.90;;;;;;4968415;28;20180;-65
2023/09/07 01:12:26;;;;;;;4.70;4.40;;;16.60;99.90;;;;;;4968013;28;20264;-65
2023/09/07 01:14:52;;;;;;;4.80;4.40;;;16.40;99.90;;;;;;4967324;28;20278;-65
2023/09/07 01:17:18;;;;;;;4.30;3.95;;;16.40;99.90;;;;;;4966695;28;20475;-66
2023/09/07 01:19:45;;;;;;;5.00;4.50;;;16.50;99.90;;;;;;4962582;28;20219;-66
2023/09/07 01:22:12;;;;;;;4.57;4.18;;;16.50;99.90;;;;;;4969070;28;20191;-66
2023/09/07 01:24:47;;;;;;;5.28;4.00;;;16.40;99.90;;;;;;4967428;28;20195;-66
2023/09/07 01:27:13;;;;;;;4.22;3.90;;;16.60;99.90;;;;;;4960504;28;20191;-66
2023/09/07 01:29:39;;;;;;;4.33;3.93;;;16.50;99.90;;;;;;4969194;28;20553;-66
2023/09/07 01:32:06;;;;;;;4.40;4.03;;;16.40;99.90;;;;;;4966149;28;20200;-66
2023/09/07 01:34:32;;;;;;;4.60;4.30;;;16.50;99.90;;;;;;4966073;28;20451;-66
2023/09/07 01:36:58;;;;;;;4.20;3.90;;;16.30;99.90;;;;;;4967463;28;20199;-66
2023/09/07 01:39:24;;;;;;;4.67;4.27;;;16.30;99.90;;;;;;4966245;28;20282;-66
2023/09/07 01:41:49;;;;;;;4.33;3.87;;;16.30;99.90;;;;;;4964069;28;20231;-66
2023/09/07 01:44:15;;;;;;;4.03;3.67;;;16.30;99.90;;;;;;4968584;28;20189;-66
2023/09/07 01:46:40;;;;;;;4.90;4.40;;;16.40;99.90;;;;;;4969276;28;20676;-66
2023/09/07 01:49:06;;;;;;;4.63;4.23;;;16.60;99.90;;;;;;4968355;28;20216;-66
2023/09/07 01:51:32;;;;;;;4.50;4.07;;;16.50;99.90;;;;;;4972787;28;20184;-66
2023/09/07 01:53:57;;;;;;;5.03;4.53;;;16.20;99.90;;;;;;4972658;28;20603;-66
2023/09/07 01:56:23;;;;;;;4.83;4.20;;;16.50;99.90;;;;;;4970330;28;20204;-66
2023/09/07 01:58:48;;;;;;;4.33;3.93;;;16.30;99.90;;;;;;4975103;28;20207;-66
2023/09/07 02:01:21;;;;;;;4.20;3.90;;;16.00;99.90;;;;;;4972461;28;20287;-66
2023/09/07 02:03:46;;;;;;;5.00;4.25;;;16.30;99.90;;;;;;4971895;28;20187;-65
2023/09/07 02:06:12;;;;;;;5.07;4.60;;;16.30;99.90;;;;;;4972642;28;20180;-65
2023/09/07 02:08:37;;;;;;;5.57;4.53;;;16.10;99.90;;;;;;4972626;28;20290;-65
2023/09/07 02:11:05;;;;;;;4.10;3.70;;;16.10;99.90;;;;;;4969013;28;20684;-65
2023/09/07 02:13:31;;;;;;;4.30;3.90;;;16.00;99.90;;;;;;4972713;28;20188;-65
2023/09/07 02:15:56;;;;;;;5.20;4.20;;;16.00;99.90;;;;;;4972037;28;20211;-65
2023/09/07 02:18:22;;;;;;;4.30;4.00;;;16.00;99.90;;;;;;4970789;28;20295;-66
2023/09/07 02:20:48;;;;;;;4.47;3.93;;;16.10;99.90;;;;;;4972289;28;20215;-66
2023/09/07 02:23:14;;;;;;;4.40;4.00;;;16.00;99.90;;;;;;4971807;28;20180;-66
2023/09/07 02:25:40;;;;;;;5.68;4.43;;;16.20;99.90;;;;;;4969711;28;20298;-66
2023/09/07 02:28:06;;;;;;;5.43;4.93;;;16.10;99.90;;;;;;4972418;28;20196;-66
2023/09/07 02:30:32;;;;;;;4.67;4.20;;;15.90;99.90;;;;;;4970390;28;20652;-66
2023/09/07 02:32:57;;;;;;;5.07;4.67;;;16.00;99.90;;;;;;4971392;28;20230;-66
2023/09/07 02:35:23;;;;;;;5.23;4.67;;;15.90;99.90;;;;;;4971628;28;20451;-66
2023/09/07 02:37:51;;;;;;;5.43;4.23;;;15.80;99.90;;;;;;4969201;28;20311;-66
2023/09/07 02:40:18;;;;;;;6.57;4.90;;;15.90;99.90;;;;;;4969047;28;20272;-66
2023/09/07 02:42:44;;;;;;;4.57;4.18;;;15.70;99.90;;;;;;4970020;28;20708;-66
2023/09/07 02:45:14;;;;;;;5.60;4.40;;;15.60;99.90;;;;;;4983033;28;20191;-66
2023/09/07 02:47:39;;;;;;;5.93;4.95;;;15.80;99.90;;;;;;4982955;28;20208;-66
2023/09/07 02:50:05;;;;;;;4.03;3.73;;;15.80;99.90;;;;;;4984516;28;20692;-66
2023/09/07 02:52:31;;;;;;;4.85;4.45;;;15.60;99.90;;;;;;4971530;28;20216;-66
2023/09/07 02:54:56;;;;;;;5.27;4.33;;;15.60;99.90;;;;;;4970225;28;20584;-66
2023/09/07 02:57:22;;;;;;;5.13;4.00;;;15.60;99.90;;;;;;4968313;28;20219;-66
2023/09/07 02:59:48;;;;;;;5.57;4.43;;;15.70;99.90;;;;;;4974099;28;20656;-66
2023/09/07 03:02:13;;;;;;;5.60;5.00;;;15.60;99.90;;;;;;4982207;28;20309;-65
2023/09/07 03:04:39;;;;;;;5.53;4.93;;;15.70;99.90;;;;;;4970272;28;20201;-66
2023/09/07 03:07:05;;;;;;;5.50;5.00;;;15.50;99.90;;;;;;4969775;28;20225;-65
2023/09/07 03:09:30;;;;;;;4.83;4.37;;;15.60;99.90;;;;;;4969379;28;20246;-65
2023/09/07 03:11:56;;;;;;;4.70;4.30;;;15.60;99.90;;;;;;4968491;28;20771;-65
2023/09/07 03:14:22;;;;;;;4.80;4.40;;;15.60;99.90;;;;;;4969889;28;20184;-65
2023/09/07 03:16:51;;;;;;;5.10;4.00;;;15.50;99.90;;;;;;4967143;28;20200;-65
2023/09/07 03:19:17;;;;;;;5.65;5.15;;;15.50;99.90;;;;;;4964831;28;20204;-66
2023/09/07 03:21:42;;;;;;;4.90;4.50;;;15.40;99.90;;;;;;4968155;28;20185;-66
2023/09/07 03:24:08;;;;;;;5.03;4.37;;;15.40;99.90;;;;;;4969083;28;20223;-66
2023/09/07 03:26:34;;;;;;;4.93;4.43;;;15.40;99.90;;;;;;4965685;28;20195;-66
2023/09/07 03:29:00;;;;;;;4.50;4.10;;;15.50;99.90;;;;;;4969329;28;20680;-66
2023/09/07 03:31:26;;;;;;;5.00;4.50;;;15.50;99.90;;;;;;4969955;28;20267;-66
2023/09/07 03:33:51;;;;;;;5.50;4.73;;;15.50;99.90;;;;;;4970064;28;20230;-65
2023/09/07 03:36:17;;;;;;;5.03;4.53;;;15.40;99.90;;;;;;4968730;28;20571;-66
2023/09/07 03:38:43;;;;;;;5.40;4.90;;;15.30;99.90;;;;;;4968859;28;20204;-65
2023/09/07 03:41:08;;;;;;;6.30;5.25;;;15.40;99.90;;;;;;4968809;28;20259;-66
2023/09/07 03:43:34;;;;;;;4.80;4.40;;;15.40;99.90;;;;;;4984301;28;20243;-66
2023/09/07 03:46:00;;;;;;;5.63;4.10;;;15.50;99.90;;;;;;4969598;28;20204;-66
2023/09/07 03:48:25;;;;;;;5.17;4.60;;;15.20;99.90;;;;;;4969042;28;20204;-66
2023/09/07 03:50:51;;;;;;;4.93;4.43;;;15.40;99.90;;;;;;4968362;28;20177;-66
2023/09/07 03:53:16;;;;;;;6.87;4.47;;;15.40;99.90;;;;;;4969738;28;20235;-66
2023/09/07 03:55:44;;;;;;;6.20;4.67;;;15.20;99.90;;;;;;4968598;28;20684;-65
2023/09/07 03:58:11;;;;;;;6.82;6.20;;;15.20;99.90;;;;;;4967623;28;20683;-66
2023/09/07 04:00:40;;;;;;;5.22;4.72;;;15.50;99.90;;;;;;4968427;28;20187;-66
2023/09/07 04:03:07;;;;;;;5.88;5.07;;;15.20;99.90;;;;;;4968204;28;20680;-66
2023/09/07 04:05:32;;;;;;;7.40;4.93;;;15.20;99.90;;;;;;4969083;28;20191;-66
2023/09/07 04:07:59;;;;;;;7.03;4.73;;;15.20;99.90;;;;;;4969473;28;20212;-66
2023/09/07 04:10:24;;;;;;;5.53;4.93;;;15.10;99.90;;;;;;4965902;28;20375;-66
2023/09/07 04:12:50;;;;;;;4.93;4.53;;;15.20;99.90;;;;;;4969455;28;20204;-66
2023/09/07 04:15:16;;;;;;;5.40;4.90;;;15.10;99.90;;;;;;4968996;28;20180;-66
2023/09/07 04:17:41;;;;;;;4.67;4.27;;;15.10;99.90;;;;;;4969121;28;20239;-66
2023/09/07 04:20:09;;;;;;;5.27;4.77;;;15.10;99.90;;;;;;4967675;28;20281;-66
2023/09/07 04:22:35;;;;;;;8.23;4.90;;;15.30;99.90;;;;;;4968321;28;20188;-66
2023/09/07 04:25:01;;;;;;;5.10;4.70;;;15.10;99.90;;;;;;4968461;28;20613;-66
2023/09/07 04:27:26;;;;;;;4.90;4.43;;;15.20;99.90;;;;;;4968854;28;20288;-66
2023/09/07 04:29:53;;;;;;;5.33;4.83;;;15.20;99.90;;;;;;4967870;28;20188;-67
2023/09/07 04:32:19;;;;;;;5.13;4.63;;;15.20;99.90;;;;;;4968738;28;20219;-65
2023/09/07 04:34:45;;;;;;;5.77;5.17;;;15.00;99.90;;;;;;4968523;28;20198;-66
2023/09/07 04:37:11;;;;;;;6.82;5.30;;;15.20;99.90;;;;;;4966887;28;20267;-66
2023/09/07 04:39:37;;;;;;;5.53;5.03;;;15.10;99.90;;;;;;4965280;28;20577;-66
2023/09/07 04:42:02;;;;;;;10.07;5.30;;;15.00;99.90;;;;;;4967905;28;20184;-66
2023/09/07 04:44:28;;;;;;;5.60;5.10;;;15.00;99.90;;;;;;4967236;28;20684;-66
2023/09/07 04:46:57;;;;;;;4.77;4.37;;;14.80;99.90;;;;;;4980696;28;20699;-66
2023/09/07 04:49:24;;;;;;;5.25;4.85;;;15.10;99.90;;;;;;4965925;28;20230;-66
2023/09/07 04:51:52;;;;;;;7.20;5.30;;;15.00;99.90;;;;;;4966315;28;20208;-66
2023/09/07 04:54:17;;;;;;;6.32;5.07;;;15.00;99.90;;;;;;4967691;28;20180;-66
2023/09/07 04:56:43;;;;;;;7.60;5.60;;;15.00;99.90;;;;;;4967775;28;20330;-66
2023/09/07 04:59:09;;;;;;;5.57;5.07;;;14.80;99.90;;;;;;4965872;28;20208;-66
2023/09/07 05:01:35;;;;;;;5.90;5.40;;;14.70;99.90;;;;;;4965893;28;20220;-66
2023/09/07 05:04:03;;;;;;;6.80;5.17;;;14.80;99.90;;;;;;4968310;28;20244;-66
2023/09/07 05:06:29;;;;;;;7.20;5.40;;;14.80;99.90;;;;;;4966022;28;20701;-64
2023/09/07 05:08:54;;;;;;;6.43;5.70;;;14.70;99.90;;;;;;4966281;28;20223;-72
2023/09/07 05:11:20;;;;;;;6.10;5.50;;;15.10;99.90;;;;;;4976000;28;20251;-69
2023/09/07 05:13:46;;;;;;;6.93;5.50;;;14.80;99.90;;;;;;4967552;28;20188;-76
2023/09/07 05:16:11;;;;;;;5.27;4.77;;;14.90;99.90;;;;;;4983737;28;20230;-76
2023/09/07 05:18:37;;;;;;;5.00;4.60;;;14.70;99.90;;;;;;4966464;28;20603;-77
2023/09/07 05:21:11;;;;;;;5.47;4.97;;;15.00;99.90;;;;;;4982713;28;20560;-77
2023/09/07 05:23:37;;;;;;;6.65;5.68;;;15.00;99.90;;;;;;4963184;28;20210;-76
2023/09/07 05:26:02;;;;;;;5.13;4.73;;;14.90;99.90;;;;;;4966481;28;20717;-76
2023/09/07 05:28:28;;;;;;;5.97;5.47;;;14.90;99.90;;;;;;4967039;28;20204;-76
2023/09/07 05:30:54;;;;;;;8.27;5.27;;;15.00;99.90;;;;;;4967679;28;20280;-77
2023/09/07 05:33:19;;;;;;;5.33;4.93;;;14.70;99.90;;;;;;4973565;28;20262;-78
2023/09/07 05:35:48;;;;;;;5.80;5.10;;;15.00;99.90;;;;;;4966721;28;20238;-63
2023/09/07 05:38:13;;;;;;;8.13;6.40;;;15.20;99.90;;;;;;4963939;28;20204;-68
2023/09/07 05:40:43;;;;;;;7.60;5.63;;;15.10;99.90;;;;;;4983209;28;20530;-73
2023/09/07 05:43:10;;;;;;;6.00;5.50;;;15.20;99.90;;;;;;4968415;28;21534;-65
2023/09/07 05:45:44;;;;;;;6.78;5.75;;;15.00;99.90;;;;;;4968705;28;20196;-65
2023/09/07 05:48:10;;;;;;;6.65;5.70;;;15.40;99.90;;;;;;4967132;28;20203;-65
2023/09/07 05:50:37;;;;;;;5.70;5.20;;;15.40;99.90;;;;;;4966785;28;20266;-69
2023/09/07 05:53:03;;;;;;;12.07;6.20;;;15.40;99.90;;;;;;4968389;28;20185;-75
2023/09/07 05:55:29;;;;;;;7.07;5.78;;;15.30;99.90;;;;;;4973913;28;20184;-77
2023/09/07 05:57:55;;;;;;;5.75;5.25;;;15.50;99.90;;;;;;4974056;28;20232;-72
2023/09/07 06:00:22;;;;;;;6.82;6.22;;;15.50;99.90;;;;;;4984021;28;20873;-73
2023/09/07 06:02:47;;;;;;;7.55;5.97;;;15.70;99.90;;;;;;4984738;28;20226;-76
2023/09/07 06:05:13;;;;;;;8.30;6.73;;;15.80;99.90;;;;;;4970851;28;20176;-77
2023/09/07 06:07:39;;;;;;;6.30;5.70;;;15.70;99.90;;;;;;4984090;28;20211;-76
2023/09/07 06:10:05;;;;;;;6.73;5.90;;;15.70;99.90;;;;;;4980944;28;20738;-63
2023/09/07 06:12:31;;;;;;;6.50;5.90;;;15.80;99.90;;;;;;4966800;28;20200;-62
2023/09/07 06:14:57;;;;;;;6.72;6.03;;;15.90;99.90;;;;;;4981819;28;20278;-62
2023/09/07 06:17:23;;;;;;;8.23;6.27;;;15.80;99.90;;;;;;4980971;28;20253;-62
2023/09/07 06:19:48;;;;;;;6.87;6.27;;;16.00;99.90;;;;;;4965234;28;20176;-62
2023/09/07 06:22:14;;;;;;;8.70;6.53;;;16.00;99.90;;;;;;4967400;28;20188;-62
2023/09/07 06:24:40;;;;;;;6.83;6.23;;;16.30;99.90;;;;;;4965516;28;20255;-62
2023/09/07 06:27:05;;;;;;;6.80;6.17;;;16.20;99.90;;;;;;4965985;28;20196;-62
2023/09/07 06:29:31;;;;;;;8.70;6.10;;;16.50;99.90;;;;;;4966246;28;20180;-65
2023/09/07 06:31:56;;;;;;;7.50;6.67;;;16.60;99.90;;;;;;4966220;28;20497;-68
2023/09/07 06:34:22;;;;;;;6.90;6.30;;;16.60;99.90;;;;;;4969137;28;20326;-65
2023/09/07 06:36:47;;;;;;;7.20;6.60;;;16.80;99.90;;;;;;4969508;28;20212;-63
2023/09/07 06:39:13;;;;;;;7.63;6.83;;;17.00;99.90;;;;;;4970690;28;20624;-63
2023/09/07 06:41:39;;;;;;;7.83;7.03;;;17.10;99.90;;;;;;4970253;28;20650;-63
2023/09/07 06:44:04;;;;;;;7.37;6.67;;;17.40;99.90;;;;;;4970720;28;20187;-62
2023/09/07 06:46:30;;;;;;;6.97;6.30;;;17.70;99.90;;;;;;4968891;28;20197;-62
2023/09/07 06:48:55;;;;;;;9.00;7.00;;;17.90;99.90;;;;;;4969230;28;20219;-62
2023/09/07 06:51:21;;;;;;;8.80;7.40;;;18.30;99.90;;;;;;4970117;28;20208;-63
2023/09/07 06:53:47;;;;;;;6.90;6.30;;;18.40;99.90;;;;;;4971204;28;20692;-64
2023/09/07 06:56:12;;;;;;;8.20;7.37;;;18.40;99.90;;;;;;4968759;28;20199;-66
2023/09/07 06:58:38;;;;;;;7.97;7.17;;;18.50;99.90;;;;;;4968090;28;20206;-63
2023/09/07 07:01:04;;;;;;;7.93;6.43;;;18.50;99.90;;;;;;4969024;28;20184;-65
2023/09/07 07:03:30;;;;;;;6.80;6.20;;;19.10;99.90;;;;;;4969758;28;20203;-62
2023/09/07 07:05:56;;;;;;;7.43;6.73;;;21.00;99.90;;;;;;4969561;28;20960;-66
2023/09/07 07:08:23;;;;;;;8.57;7.60;;;23.50;98.60;;;;;;4966452;28;21029;-68
2023/09/07 07:10:49;;;;;;;7.40;6.70;;;25.40;94.30;;;;;;4969659;28;20459;-71
2023/09/07 07:13:15;;;;;;;6.63;6.07;;;26.40;90.70;;;;;;4970746;28;20479;-70
2023/09/07 07:15:41;;;;;;;9.37;6.57;;;27.40;88.50;;;;;;4970444;28;20449;-72
2023/09/07 07:18:10;;;;;;;8.90;6.67;;;28.40;82.90;;;;;;4966536;28;20200;-69
2023/09/07 07:20:41;;;;;;;5.57;5.17;;;29.90;79.10;;;;;;4969235;28;20451;-71
2023/09/07 07:23:07;;;;;;;8.33;6.07;;;32.40;70.50;;;;;;4966202;28;20466;-71
2023/09/07 07:25:33;;;;;;;7.30;6.70;;;34.60;62.30;;;;;;4966766;28;20450;-61
2023/09/07 07:28:00;;;;;;;6.70;6.20;;;36.20;56.90;;;;;;4968892;28;20467;-70
2023/09/07 07:30:29;;;;;;;8.83;7.93;;;37.30;52.60;;;;;;4968328;28;20444;-67
2023/09/07 07:32:54;;;;;;;6.70;6.03;;;38.50;49.20;;;;;;4981930;28;20444;-70
2023/09/07 07:35:20;;;;;;;7.10;6.50;;;39.40;46.70;;;;;;4982286;28;20454;-72
2023/09/07 07:37:46;;;;;;;5.90;5.50;;;40.30;44.60;;;;;;4967858;28;20693;-71
2023/09/07 07:40:11;;;;;;;6.93;6.37;;;41.20;42.50;;;;;;4967164;28;20584;-72
2023/09/07 07:42:37;;;;;;;5.50;5.10;;;41.60;40.10;;;;;;4965965;28;20187;-72
2023/09/07 07:45:03;;;;;;;5.50;5.10;;;41.90;39.10;;;;;;4982644;28;20661;-72
2023/09/07 07:47:28;;;;;;;6.23;5.63;;;42.30;38.20;;;;;;4966847;28;20214;-70
2023/09/07 07:49:54;;;;;;;5.57;5.17;;;41.70;37.50;;;;;;4966096;28;20200;-70
2023/09/07 07:52:20;;;;;;;7.70;5.63;;;40.70;38.30;;;;;;4966845;28;20276;-71
2023/09/07 07:54:45;;;;;;;6.03;5.50;;;39.70;39.90;;;;;;4967878;28;20578;-71
2023/09/07 07:57:11;;;;;;;5.57;5.17;;;40.70;39.50;;;;;;4967628;28;20282;-71
2023/09/07 07:59:37;;;;;;;5.67;5.17;;;41.80;38.10;;;;;;4967711;28;20203;-72
2023/09/07 08:02:03;;;;;;;14.57;6.83;;;42.10;37.30;;;;;;4969224;28;20562;-70
2023/09/07 08:04:29;;;;;;;6.20;5.80;;;42.70;36.50;;;;;;4966530;28;20231;-69
2023/09/07 08:06:58;;;;;;;12.73;7.87;;;42.80;36.00;;;;;;4967019;28;20443;-69
2023/09/07 08:09:23;;;;;;;6.90;6.20;;;43.20;35.30;;;;;;4968371;28;20214;-69
2023/09/07 08:11:50;;;;;;;8.20;5.50;;;42.40;35.80;;;;;;4966464;28;20554;-69
2023/09/07 08:14:16;;;;;;;5.83;5.30;;;41.50;36.10;;;;;;4966663;28;20189;-69
2023/09/07 08:16:41;;;;;;;11.03;6.70;;;41.40;36.20;;;;;;4965804;28;20594;-77
2023/09/07 08:19:07;;;;;;;5.20;4.80;;;42.00;36.10;;;;;;4979747;28;20196;-72
2023/09/07 08:21:40;;;;;;;5.67;5.37;;;41.80;35.70;;;;;;4969468;28;20528;-73
2023/09/07 08:24:14;;;;;;;5.80;5.40;;;41.30;36.20;;;;;;4966934;28;20187;-72
2023/09/07 08:26:51;;;;;;;5.97;5.57;;;40.10;37.30;;;;;;4964338;28;20542;-72
2023/09/07 08:29:20;;;;;;;7.50;5.60;;;39.20;38.50;;;;;;4968843;28;20475;-71
2023/09/07 08:31:47;;;;;;;5.87;5.37;;;38.00;40.20;;;;;;4969751;28;20448;-71
2023/09/07 08:34:14;;;;;;;6.40;5.90;;;37.20;41.00;;;;;;4966641;28;20793;-72
2023/09/07 08:36:40;;;;;;;6.70;6.10;;;36.40;42.50;;;;;;4968877;28;20474;-71
2023/09/07 08:39:09;;;;;;;6.50;6.10;;;35.60;44.00;;;;;;4969193;28;20451;-70
2023/09/07 08:41:46;;;;;;;6.30;5.80;;;33.60;46.70;;;;;;4966670;28;20291;-71
2023/09/07 08:44:22;;;;;;;7.50;6.80;;;32.50;49.20;;;;;;4967736;28;20809;-71
2023/09/07 08:46:51;;;;;;;6.93;6.30;;;31.60;51.30;;;;;;4968401;28;20453;-72
2023/09/07 08:49:20;;;;;;;6.87;6.30;;;30.80;52.80;;;;;;4963808;28;20964;-72
2023/09/07 08:51:47;;;;;;;7.03;6.43;;;30.10;54.50;;;;;;4968921;28;20486;-73
2023/09/07 08:54:13;;;;;;;6.33;5.80;;;29.40;56.10;;;;;;4967907;28;20450;-71
2023/09/07 08:56:38;;;;;;;6.20;5.80;;;28.70;58.30;;;;;;4966175;28;20835;-72
2023/09/07 08:59:04;;;;;;;7.47;6.83;;;28.30;60.10;;;;;;4968850;28;20671;-71
2023/09/07 09:01:31;;;;;;;7.40;6.80;;;27.90;62.30;;;;;;4968802;28;20185;-71
2023/09/07 09:03:58;;;;;;;7.00;6.50;;;27.80;63.60;;;;;;4968051;28;20187;-72
2023/09/07 09:06:24;;;;;;;8.83;6.07;;;27.20;65.30;;;;;;4982858;28;20965;-70
2023/09/07 09:08:54;;;;;;;7.60;6.97;;;27.30;68.40;;;;;;4967694;28;20460;-69
2023/09/07 09:11:21;;;;;;;7.07;6.53;;;26.70;69.50;;;;;;4966859;28;20531;-71
2023/09/07 09:13:48;;;;;;;6.83;6.20;;;26.70;70.40;;;;;;4967509;28;20508;-73
2023/09/07 09:16:14;;;;;;;7.80;7.10;;;26.60;71.40;;;;;;4968120;28;20504;-74
2023/09/07 09:18:53;;;;;;;7.00;6.40;;;26.30;72.40;;;;;;4966659;28;21016;-72
2023/09/07 09:21:20;;;;;;;7.07;6.47;;;26.10;74.00;;;;;;4967671;28;20443;-71
2023/09/07 09:23:49;;;;;;;8.33;6.60;;;25.80;75.90;;;;;;4968252;28;20436;-69
2023/09/07 09:26:15;;;;;;;7.30;6.70;;;25.70;77.80;;;;;;4982100;28;20457;-69
2023/09/07 09:28:42;;;;;;;6.97;6.40;;;25.80;78.40;;;;;;4966367;28;20575;-69
2023/09/07 09:31:12;;;;;;;8.73;6.83;;;25.70;79.40;;;;;;4968490;28;20526;-71
2023/09/07 09:33:58;;;;;;;7.27;6.60;;;25.50;80.80;;;;;;4965844;28;20498;-70
2023/09/07 09:36:23;;;;;;;6.90;6.30;;;25.60;81.70;;;;;;4965407;28;20478;-70
2023/09/07 09:38:52;;;;;;;7.20;6.60;;;25.70;81.30;;;;;;4981623;28;20525;-71
2023/09/07 09:41:19;;;;;;;6.83;6.43;;;25.70;81.90;;;;;;4964749;28;20190;-71
2023/09/07 09:43:49;;;;;;;7.60;6.90;;;25.70;82.30;;;;;;4965471;28;20522;-71
2023/09/07 09:46:15;;;;;;;7.20;6.50;;;25.60;82.30;;;;;;4965670;28;20474;-71
2023/09/07 09:48:42;;;;;;;7.37;6.70;;;25.70;83.00;;;;;;4967229;28;20490;-71
2023/09/07 09:51:08;;;;;;;6.47;5.87;;;26.00;83.60;;;;;;4983674;28;20874;-70
2023/09/07 09:53:34;;;;;;;6.70;6.10;;;25.90;82.50;;;;;;4981476;28;20490;-71
2023/09/07 09:56:00;;;;;;;7.13;6.53;;;26.00;83.00;;;;;;4966249;28;20455;-70
2023/09/07 09:58:26;;;;;;;7.30;6.70;;;26.00;82.70;;;;;;4981290;28;20507;-71
2023/09/07 10:00:55;;;;;;;7.30;6.70;;;26.10;82.70;;;;;;4967244;28;20483;-71
2023/09/07 10:03:28;;;;;;;7.17;6.47;;;26.10;83.20;;;;;;4966503;28;20235;-69
2023/09/07 10:05:53;;;;;;;7.70;6.90;;;26.00;84.10;;;;;;4966351;28;20531;-71
2023/09/07 10:08:22;;;;;;;7.20;6.50;;;26.20;82.80;;;;;;4968321;28;20558;-71
2023/09/07 10:10:53;;;;;;;7.50;6.80;;;26.10;83.90;;;;;;4971225;28;20231;-71
2023/09/07 10:13:32;;;;;;;6.90;6.30;;;26.20;83.70;;;;;;4971957;28;20446;-71
2023/09/07 10:16:04;;;;;;;6.57;6.07;;;26.30;83.90;;;;;;4971312;28;20435;-71
2023/09/07 10:18:35;;;;;;;6.30;5.80;;;26.50;83.70;;;;;;4985310;28;20471;-70
2023/09/07 10:21:02;;;;;;;7.17;6.57;;;26.60;83.20;;;;;;4971607;28;20447;-71
2023/09/07 10:23:42;;;;;;;6.70;6.20;;;26.60;82.90;;;;;;4983495;28;20450;-74
2023/09/07 10:26:13;;;;;;;7.40;6.73;;;26.70;82.40;;;;;;4963318;28;21055;-70
2023/09/07 10:28:39;;;;;;;7.23;6.63;;;26.60;82.30;;;;;;4982821;28;20554;-72
2023/09/07 10:31:18;;;;;;;6.60;6.10;;;26.60;83.50;;;;;;4982980;28;20498;-71
2023/09/07 10:33:44;;;;;;;6.53;5.93;;;26.80;82.50;;;;;;4985158;28;20443;-70
2023/09/07 10:36:25;;;;;;;7.00;6.40;;;26.90;82.40;;;;;;4970332;28;20513;-69
2023/09/07 10:38:54;;;;;;;6.63;6.13;;;27.00;81.80;;;;;;4966810;28;20512;-71
2023/09/07 10:41:20;;;;;;;7.30;6.60;;;27.00;81.40;;;;;;4983039;28;20445;-70
2023/09/07 10:43:53;;;;;;;7.80;6.90;;;26.90;81.10;;;;;;4969835;28;20454;-69
2023/09/07 10:46:21;;;;;;;6.73;6.23;;;26.80;82.00;;;;;;4968454;28;20445;-70
2023/09/07 10:48:52;;;;;;;9.57;6.63;;;26.90;83.00;;;;;;4969275;28;20838;-69
2023/09/07 10:51:18;;;;;;;7.73;7.07;;;27.00;82.50;;;;;;4970081;28;20765;-69
2023/09/07 10:53:44;;;;;;;7.57;6.97;;;27.00;82.80;;;;;;4970733;28;20451;-70
2023/09/07 10:56:10;;;;;;;8.37;7.63;;;26.90;82.50;;;;;;4967501;28;20473;-70
2023/09/07 10:58:42;;;;;;;8.37;7.40;;;26.90;83.10;;;;;;4967676;28;20207;-69
2023/09/07 11:01:09;;;;;;;8.07;7.47;;;26.90;83.40;;;;;;4968751;28;20458;-71
2023/09/07 11:03:36;;;;;;;8.40;7.70;;;26.90;83.80;;;;;;4981458;28;20465;-67
2023/09/07 11:06:17;;;;;;;7.80;7.10;;;26.90;83.40;;;;;;4967305;28;20448;-68
2023/09/07 11:08:43;;;;;;;8.43;7.60;;;27.00;83.40;;;;;;4966535;28;20473;-68
2023/09/07 11:11:09;;;;;;;8.30;7.60;;;27.00;83.60;;;;;;4967764;28;20466;-68
2023/09/07 11:13:35;;;;;;;8.63;7.73;;;26.70;82.60;;;;;;4969756;28;20189;-67
2023/09/07 11:16:01;;;;;;;7.70;7.00;;;27.10;83.70;;;;;;4984072;28;20454;-68
2023/09/07 11:18:27;;;;;;;8.20;7.50;;;27.30;83.50;;;;;;4983527;28;20513;-69
2023/09/07 11:20:53;;;;;;;7.07;6.43;;;27.40;82.60;;;;;;4968155;28;20485;-68
2023/09/07 11:23:21;;;;;;;8.17;7.50;;;27.40;82.80;;;;;;4984813;28;20682;-69
2023/09/07 11:25:48;;;;;;;8.83;8.03;;;27.10;82.80;;;;;;4965552;28;20474;-68
2023/09/07 11:28:16;;;;;;;8.50;7.90;;;27.00;83.10;;;;;;4969289;28;20861;-68
2023/09/07 11:30:51;;;;;;;8.17;7.57;;;27.00;84.10;;;;;;4966519;28;20453;-71
2023/09/07 11:33:17;;;;;;;8.50;7.70;;;27.20;84.20;;;;;;4967315;28;20987;-70
2023/09/07 11:35:43;;;;;;;9.70;8.80;;;27.30;84.00;;;;;;4983966;28;20447;-69
2023/09/07 11:38:12;;;;;;;8.57;7.87;;;27.50;82.90;;;;;;4966956;28;20220;-69
2023/09/07 11:40:38;;;;;;;7.00;6.30;;;27.60;82.60;;;;;;4965446;28;20186;-69
2023/09/07 11:43:03;;;;;;;7.47;6.87;;;27.60;82.10;;;;;;4969454;28;20941;-68
2023/09/07 11:45:29;;;;;;;8.30;7.60;;;27.70;82.80;;;;;;4967139;28;20194;-69
2023/09/07 11:47:54;;;;;;;7.50;6.97;;;27.70;82.20;;;;;;4967795;28;20694;-69
2023/09/07 11:50:24;;;;;;;8.33;7.73;;;27.80;82.40;;;;;;4966830;28;20207;-69
2023/09/07 11:52:50;;;;;;;8.60;7.80;;;27.80;81.80;;;;;;4969393;28;20195;-70
2023/09/07 11:55:15;;;;;;;8.33;7.63;;;27.90;81.80;;;;;;4968416;28;20454;-69
2023/09/07 11:57:41;;;;;;;8.40;7.70;;;28.10;81.50;;;;;;4968432;28;20234;-74
2023/09/07 12:00:11;;;;;;;7.93;7.23;;;28.60;79.90;;;;;;4968153;28;20199;-67
2023/09/07 12:02:40;;;;;;;8.50;7.10;;;29.20;78.30;;;;;;4965821;28;20193;-67
2023/09/07 12:05:07;;;;;;;8.60;7.80;;;29.00;76.60;;;;;;4980029;28;20707;-69
2023/09/07 12:07:33;;;;;;;7.97;7.37;;;29.10;77.10;;;;;;4964425;28;21026;-69
2023/09/07 12:09:59;;;;;;;7.67;6.90;;;29.40;76.90;;;;;;4965028;28;20471;-67
2023/09/07 12:12:25;;;;;;;6.80;6.20;;;29.50;75.50;;;;;;4968971;28;20542;-67
2023/09/07 12:14:50;;;;;;;9.50;8.70;;;29.40;75.60;;;;;;4967210;28;20203;-68
2023/09/07 12:17:16;;;;;;;7.43;6.83;;;29.20;75.70;;;;;;4968307;28;20219;-69
2023/09/07 12:19:42;;;;;;;10.40;8.90;;;29.00;76.20;;;;;;4966939;28;20211;-70
2023/09/07 12:22:08;;;;;;;7.23;6.60;;;28.80;77.90;;;;;;4969125;28;20227;-74
2023/09/07 12:24:33;;;;;;;6.87;6.37;;;28.70;77.90;;;;;;4985250;28;20901;-69
2023/09/07 12:26:59;;;;;;;6.60;5.93;;;28.70;77.90;;;;;;4967648;28;20199;-72
2023/09/07 12:29:25;;;;;;;7.67;6.97;;;28.80;78.70;;;;;;4969817;28;20215;-72
2023/09/07 12:31:51;;;;;;;6.83;6.33;;;28.80;77.70;;;;;;4970379;28;20953;-72
2023/09/07 12:34:17;;;;;;;6.70;6.00;;;28.80;77.00;;;;;;4967095;28;20529;-73
2023/09/07 12:36:42;;;;;;;6.77;6.23;;;28.80;77.30;;;;;;4967708;28;20215;-72
2023/09/07 12:39:08;;;;;;;7.80;6.40;;;28.80;77.40;;;;;;4967235;28;20268;-72
2023/09/07 12:41:33;;;;;;;6.10;5.70;;;28.80;77.20;;;;;;4983328;28;20192;-71
2023/09/07 12:43:59;;;;;;;6.70;6.10;;;28.80;76.30;;;;;;4966006;28;20252;-69